createdAt,value
2019-04-03T00:00:09.434Z,31.30
2019-04-03T00:02:38.916Z,27.13
2019-04-03T00:05:08.244Z,22.40
2019-04-03T00:07:37.407Z,27.57
2019-04-03T00:10:07.731Z,22.40
2019-04-03T00:12:36.889Z,23.97
2019-04-03T00:15:06.590Z,21.10
2019-04-03T00:17:36.120Z,27.17
2019-04-03T00:20:05.960Z,26.33
2019-04-03T00:22:35.408Z,23.63
2019-04-03T00:25:05.093Z,24.60
2019-04-03T00:27:34.632Z,23.50
2019-04-03T00:30:04.560Z,23.87
2019-04-03T00:32:34.056Z,24.73
2019-04-03T00:35:03.321Z,32.40
2019-04-03T00:37:32.489Z,24.47
2019-04-03T00:40:01.767Z,32.17
2019-04-03T00:42:31.028Z,25.50
2019-04-03T00:45:00.237Z,24.10
2019-04-03T00:47:29.385Z,23.37
2019-04-03T00:49:58.532Z,26.23
2019-04-03T00:52:28.106Z,24.10
2019-04-03T00:54:57.506Z,23.17
2019-04-03T00:57:26.909Z,25.83
2019-04-03T00:59:56.759Z,25.00
2019-04-03T01:02:27.816Z,27.63
2019-04-03T01:04:58.802Z,25.73
2019-04-03T01:07:29.258Z,30.43
2019-04-03T01:09:59.495Z,31.70
2019-04-03T01:12:31.310Z,23.97
2019-04-03T01:15:01.607Z,27.70
2019-04-03T01:17:31.305Z,24.40
2019-04-03T01:20:01.866Z,25.93
2019-04-03T01:22:30.984Z,26.17
2019-04-03T01:25:00.203Z,25.23
2019-04-03T01:27:29.315Z,28.87
2019-04-03T01:29:58.450Z,22.73
2019-04-03T01:32:27.560Z,26.27
2019-04-03T01:34:56.812Z,26.50
2019-04-03T01:37:26.000Z,32.10
2019-04-03T01:39:55.536Z,25.23
2019-04-03T01:42:24.860Z,22.97
2019-04-03T01:44:55.459Z,26.10
2019-04-03T01:47:27.387Z,23.63
2019-04-03T01:49:58.160Z,29.10
2019-04-03T01:52:26.657Z,26.93
2019-04-03T01:54:55.751Z,21.90
2019-04-03T01:57:25.221Z,24.40
2019-04-03T01:59:54.588Z,27.50
2019-04-03T02:02:23.707Z,27.80
2019-04-03T02:04:52.820Z,29.77
2019-04-03T02:07:21.927Z,24.47
2019-04-03T02:09:51.027Z,28.80
2019-04-03T02:12:20.510Z,26.20
2019-04-03T02:14:51.727Z,24.93
2019-04-03T02:17:23.160Z,40.53
2019-04-03T02:19:52.147Z,28.90
2019-04-03T02:22:21.271Z,23.50
2019-04-03T02:24:50.360Z,24.00
2019-04-03T02:27:19.462Z,26.57
2019-04-03T02:29:48.663Z,27.80
2019-04-03T02:32:17.760Z,25.30
2019-04-03T02:34:46.879Z,25.93
2019-04-03T02:37:17.022Z,33.77
2019-04-03T02:39:46.885Z,21.87
2019-04-03T02:42:15.999Z,25.40
2019-04-03T02:44:45.395Z,22.20
2019-04-03T02:47:15.202Z,24.10
2019-04-03T02:49:44.913Z,20.90
2019-04-03T02:52:14.167Z,23.00
2019-04-03T02:54:44.232Z,21.60
2019-04-03T02:57:16.695Z,30.43
2019-04-03T02:59:44.123Z,22.20
2019-04-03T03:02:13.698Z,25.33
2019-04-03T03:04:42.942Z,27.53
2019-04-03T03:07:12.162Z,21.20
2019-04-03T03:09:45.957Z,21.07
2019-04-03T03:12:13.777Z,20.17
2019-04-03T03:14:43.139Z,30.60
2019-04-03T03:17:12.577Z,25.30
2019-04-03T03:19:42.098Z,27.10
2019-04-03T03:22:11.528Z,24.50
2019-04-03T03:24:40.991Z,22.17
2019-04-03T03:27:10.780Z,26.83
2019-04-03T03:29:40.472Z,25.23
2019-04-03T03:32:17.704Z,26.80
2019-04-03T03:34:53.682Z,27.57
2019-04-03T03:37:13.535Z,26.77
2019-04-03T03:39:44.131Z,23.57
2019-04-03T03:42:14.393Z,24.43
2019-04-03T03:44:45.863Z,28.70
2019-04-03T03:47:15.499Z,26.97
2019-04-03T03:49:48.397Z,23.17
2019-04-03T03:52:16.056Z,25.00
2019-04-03T03:54:49.639Z,24.10
2019-04-03T03:57:16.502Z,29.00
2019-04-03T03:59:49.482Z,25.30
2019-04-03T04:02:16.561Z,26.17
2019-04-03T04:04:48.056Z,24.40
2019-04-03T04:07:16.489Z,34.53
2019-04-03T04:09:49.494Z,23.13
2019-04-03T04:12:17.534Z,23.53
2019-04-03T04:14:46.768Z,26.13
2019-04-03T04:17:18.048Z,22.10
2019-04-03T04:19:47.065Z,25.07
2019-04-03T04:22:18.068Z,24.10
2019-04-03T04:24:47.635Z,28.00
2019-04-03T04:27:16.759Z,25.23
2019-04-03T04:29:46.367Z,26.40
2019-04-03T04:32:15.699Z,28.27
2019-04-03T04:34:44.832Z,25.80
2019-04-03T04:37:13.969Z,25.40
2019-04-03T04:39:43.235Z,27.03
2019-04-03T04:42:12.423Z,25.00
2019-04-03T04:44:41.643Z,23.57
2019-04-03T04:47:10.751Z,27.60
2019-04-03T04:49:40.215Z,29.63
2019-04-03T04:52:09.326Z,25.93
2019-04-03T04:54:38.529Z,26.20
2019-04-03T04:57:08.927Z,33.60
2019-04-03T04:59:38.697Z,27.50
2019-04-03T05:02:08.116Z,28.23
2019-04-03T05:04:37.213Z,28.00
2019-04-03T05:07:06.300Z,27.40
2019-04-03T05:09:35.545Z,28.13
2019-04-03T05:12:05.003Z,33.83
2019-04-03T05:14:34.407Z,26.80
2019-04-03T05:17:03.629Z,26.77
2019-04-03T05:19:32.844Z,38.40
2019-04-03T05:22:02.215Z,25.03
2019-04-03T05:24:31.673Z,29.23
2019-04-03T05:27:02.548Z,25.27
2019-04-03T05:29:32.854Z,36.23
2019-04-03T05:32:02.468Z,26.27
2019-04-03T05:34:31.569Z,23.90
2019-04-03T05:37:00.700Z,24.10
2019-04-03T05:39:30.900Z,36.10
2019-04-03T05:42:00.207Z,35.37
2019-04-03T05:44:29.636Z,30.70
2019-04-03T05:47:00.627Z,29.40
2019-04-03T05:49:30.135Z,24.20
2019-04-03T05:51:59.261Z,25.70
2019-04-03T05:54:28.485Z,32.78
2019-04-03T05:56:57.763Z,33.27
2019-04-03T05:59:26.955Z,34.30
2019-04-03T06:01:56.193Z,36.63
2019-04-03T06:04:25.295Z,28.73
2019-04-03T06:06:54.773Z,34.47
2019-04-03T06:09:23.864Z,24.93
2019-04-03T06:11:53.237Z,24.70
2019-04-03T06:14:23.569Z,32.77
2019-04-03T06:16:55.464Z,29.30
2019-04-03T06:19:24.710Z,28.47
2019-04-03T06:21:53.943Z,28.40
2019-04-03T06:24:24.338Z,26.47
2019-04-03T06:26:54.978Z,22.40
2019-04-03T06:29:24.096Z,34.50
2019-04-03T06:31:53.196Z,25.50
2019-04-03T06:34:22.555Z,25.73
2019-04-03T06:36:52.457Z,31.50
2019-04-03T06:39:22.903Z,26.40
2019-04-03T06:41:52.465Z,26.37
2019-04-03T06:44:22.548Z,28.60
2019-04-03T06:46:54.062Z,24.47
2019-04-03T06:49:23.091Z,23.33
2019-04-03T06:51:52.203Z,25.90
2019-04-03T06:54:21.301Z,27.37
2019-04-03T06:56:52.151Z,24.80
2019-04-03T06:59:21.564Z,27.33
2019-04-03T07:01:52.901Z,25.40
2019-04-03T07:04:21.906Z,32.93
2019-04-03T07:06:51.020Z,30.53
2019-04-03T07:09:32.203Z,27.27
2019-04-03T07:11:52.543Z,36.20
2019-04-03T07:14:21.631Z,34.60
2019-04-03T07:16:50.922Z,31.27
2019-04-03T07:19:20.142Z,26.83
2019-04-03T07:21:49.257Z,38.53
2019-04-03T07:24:18.347Z,22.17
2019-04-03T07:26:47.458Z,25.30
2019-04-03T07:29:17.380Z,24.93
2019-04-03T07:31:47.086Z,27.27
2019-04-03T07:34:17.410Z,27.23
2019-04-03T07:36:46.803Z,32.00
2019-04-03T07:39:18.465Z,24.93
2019-04-03T07:41:46.862Z,22.40
2019-04-03T07:44:15.950Z,25.43
2019-04-03T07:46:45.388Z,21.00
2019-04-03T07:49:14.744Z,23.67
2019-04-03T07:51:44.527Z,23.40
2019-04-03T07:54:13.830Z,27.03
2019-04-03T07:56:43.316Z,22.60
2019-04-03T07:59:12.443Z,22.13
2019-04-03T08:01:42.930Z,23.00
2019-04-03T08:04:12.032Z,31.60
2019-04-03T08:06:41.406Z,21.20
2019-04-03T08:09:10.566Z,23.03
2019-04-03T08:11:39.793Z,20.33
2019-04-03T08:14:09.857Z,24.10
2019-04-03T08:16:41.706Z,21.50
2019-04-03T08:19:09.973Z,20.97
2019-04-03T08:21:39.071Z,18.40
2019-04-03T08:24:08.697Z,22.90
2019-04-03T08:26:38.101Z,22.40
2019-04-03T08:29:07.327Z,19.30
2019-04-03T08:31:36.444Z,17.47
2019-04-03T08:34:15.988Z,22.40
2019-04-03T08:36:38.379Z,20.03
2019-04-03T08:39:08.240Z,24.13
2019-04-03T08:41:37.894Z,26.00
2019-04-03T08:44:09.119Z,21.80
2019-04-03T08:46:38.700Z,23.43
2019-04-03T08:49:08.376Z,19.20
2019-04-03T08:51:37.879Z,19.10
2019-04-03T08:54:09.522Z,21.07
2019-04-03T08:56:37.915Z,22.37
2019-04-03T08:59:07.389Z,26.70
2019-04-03T09:01:37.259Z,25.80
2019-04-03T09:04:06.772Z,18.57
2019-04-03T09:06:36.284Z,19.80
2019-04-03T09:09:07.169Z,19.40
2019-04-03T09:11:37.139Z,18.87
2019-04-03T09:14:06.413Z,27.20
2019-04-03T09:16:35.916Z,19.20
2019-04-03T09:19:05.007Z,21.87
2019-04-03T09:21:34.446Z,18.90
2019-04-03T09:24:03.628Z,17.37
2019-04-03T09:26:36.993Z,19.23
2019-04-03T09:29:03.999Z,18.57
2019-04-03T09:31:33.112Z,17.30
2019-04-03T09:34:02.237Z,19.30
2019-04-03T09:36:32.887Z,20.70
2019-04-03T09:39:02.595Z,20.43
2019-04-03T09:41:33.108Z,19.10
2019-04-03T09:44:02.211Z,18.30
2019-04-03T09:46:31.923Z,20.07
2019-04-03T09:49:01.474Z,20.30
2019-04-03T09:51:30.609Z,20.30
2019-04-03T09:53:59.714Z,19.60
2019-04-03T09:56:28.894Z,23.40
2019-04-03T09:58:58.146Z,20.30
2019-04-03T10:01:27.254Z,23.03
2019-04-03T10:03:57.347Z,20.47
2019-04-03T10:06:26.490Z,24.87
2019-04-03T10:08:55.854Z,28.10
2019-04-03T10:11:25.347Z,22.70
2019-04-03T10:13:54.978Z,20.93
2019-04-03T10:16:25.302Z,24.30
2019-04-03T10:18:54.774Z,29.90
2019-04-03T10:21:24.250Z,32.63
2019-04-03T10:23:53.447Z,30.70
2019-04-03T10:26:22.550Z,30.77
2019-04-03T10:28:51.644Z,23.43
2019-04-03T10:31:23.381Z,26.07
2019-04-03T10:33:51.903Z,29.87
2019-04-03T10:36:21.444Z,25.53
2019-04-03T10:38:50.535Z,30.43
2019-04-03T10:41:20.691Z,27.57
2019-04-03T10:43:49.951Z,25.97
2019-04-03T10:46:19.626Z,31.00
2019-04-03T10:48:49.483Z,28.53
2019-04-03T10:51:18.787Z,24.80
2019-04-03T10:53:48.931Z,27.93
2019-04-03T10:56:19.929Z,26.90
2019-04-03T10:58:50.780Z,23.90
2019-04-03T11:01:20.302Z,19.13
2019-04-03T11:03:49.500Z,20.57
2019-04-03T11:06:20.165Z,25.37
2019-04-03T11:08:49.367Z,20.50
2019-04-03T11:11:18.479Z,21.73
2019-04-03T11:13:47.573Z,21.47
2019-04-03T11:16:17.083Z,19.20
2019-04-03T11:18:58.084Z,19.00
2019-04-03T11:21:18.071Z,19.20
2019-04-03T11:23:47.240Z,17.20
2019-04-03T11:26:18.337Z,15.60
2019-04-03T11:28:47.187Z,18.80
2019-04-03T11:31:25.792Z,19.03
2019-04-03T11:33:50.099Z,22.17
2019-04-03T11:36:18.276Z,22.57
2019-04-03T11:38:47.703Z,16.30
2019-04-03T11:41:19.606Z,21.70
2019-04-03T11:43:48.137Z,16.73
2019-04-03T11:46:17.394Z,17.87
2019-04-03T11:48:48.398Z,18.50
2019-04-03T11:51:17.853Z,11.90
2019-04-03T11:53:47.059Z,16.53
2019-04-03T11:56:16.529Z,16.40
2019-04-03T11:58:46.836Z,13.00
2019-04-03T12:01:17.047Z,14.90
2019-04-03T12:03:46.321Z,15.67
2019-04-03T12:06:16.381Z,13.13
2019-04-03T12:08:46.663Z,14.87
2019-04-03T12:11:16.213Z,18.00
2019-04-03T12:13:46.280Z,17.13
2019-04-03T12:16:15.974Z,14.50
2019-04-03T12:18:45.079Z,20.70
2019-04-03T12:21:16.470Z,16.20
2019-04-03T12:23:45.342Z,14.57
2019-04-03T12:26:14.547Z,15.33
2019-04-03T12:28:43.846Z,15.83
2019-04-03T12:31:13.311Z,16.30
2019-04-03T12:33:52.414Z,15.70
2019-04-03T12:36:14.338Z,15.90
2019-04-03T12:38:43.615Z,34.17
2019-04-03T12:41:12.774Z,17.30
2019-04-03T12:43:41.866Z,18.23
2019-04-03T12:46:10.979Z,13.90
2019-04-03T12:48:40.106Z,14.07
2019-04-03T12:51:09.260Z,9.43
2019-04-03T12:53:38.350Z,14.37
2019-04-03T12:56:08.709Z,13.43
2019-04-03T12:58:38.527Z,12.07
2019-04-03T13:01:10.764Z,9.53
2019-04-03T13:03:39.276Z,8.37
2019-04-03T13:06:09.744Z,8.90
2019-04-03T13:08:39.525Z,6.70
2019-04-03T13:11:08.728Z,11.23
2019-04-03T13:13:38.653Z,7.13
2019-04-03T13:16:10.240Z,7.37
2019-04-03T13:18:39.099Z,11.10
2019-04-03T13:21:09.271Z,6.67
2019-04-03T13:23:38.780Z,5.90
2019-04-03T13:26:07.983Z,5.70
2019-04-03T13:28:39.775Z,5.20
2019-04-03T13:31:07.879Z,5.07
2019-04-03T13:33:38.729Z,5.53
2019-04-03T13:36:07.781Z,5.20
2019-04-03T13:38:37.216Z,7.63
2019-04-03T13:41:07.960Z,7.13
2019-04-03T13:43:37.114Z,57.90
2019-04-03T13:46:06.472Z,10.53
2019-04-03T13:48:35.715Z,6.23
2019-04-03T13:51:05.466Z,5.70
2019-04-03T13:53:34.611Z,5.70
2019-04-03T13:56:05.908Z,4.90
2019-04-03T13:58:34.595Z,6.23
2019-04-03T14:01:07.390Z,5.67
2019-04-03T14:03:35.519Z,5.83
2019-04-03T14:06:05.323Z,8.27
2019-04-03T14:08:35.307Z,5.33
2019-04-03T14:11:04.878Z,5.30
2019-04-03T14:13:34.091Z,10.33
2019-04-03T14:16:03.276Z,6.40
2019-04-03T14:18:32.375Z,4.73
2019-04-03T14:21:01.475Z,8.27
2019-04-03T14:23:30.690Z,5.17
2019-04-03T14:26:06.202Z,4.23
2019-04-03T14:28:33.366Z,3.80
2019-04-03T14:31:01.982Z,4.07
2019-04-03T14:33:41.814Z,9.90
2019-04-03T14:36:02.419Z,4.63
2019-04-03T14:38:33.140Z,5.63
2019-04-03T14:41:03.086Z,5.30
2019-04-03T14:43:34.045Z,9.00
2019-04-03T14:46:03.958Z,8.10
2019-04-03T14:48:33.585Z,8.27
2019-04-03T14:51:04.011Z,10.07
2019-04-03T14:53:33.683Z,8.63
2019-04-03T14:56:02.822Z,9.17
2019-04-03T14:58:31.927Z,13.50
2019-04-03T15:01:01.083Z,10.87
2019-04-03T15:03:30.381Z,12.40
2019-04-03T15:06:00.366Z,12.70
2019-04-03T15:08:29.602Z,13.87
2019-04-03T15:10:58.736Z,11.87
2019-04-03T15:13:27.898Z,12.40
2019-04-03T15:15:58.819Z,14.30
2019-04-03T15:18:27.979Z,12.50
2019-04-03T15:20:57.751Z,17.70
2019-04-03T15:23:27.133Z,13.80
2019-04-03T15:25:57.219Z,16.37
2019-04-03T15:28:27.968Z,15.10
2019-04-03T15:30:57.180Z,15.00
2019-04-03T15:33:26.336Z,13.67
2019-04-03T15:35:55.503Z,13.60
2019-04-03T15:38:24.677Z,14.00
2019-04-03T15:40:57.102Z,14.37
2019-04-03T15:43:25.271Z,16.87
2019-04-03T15:45:56.609Z,13.60
2019-04-03T15:48:27.040Z,23.23
2019-04-03T15:50:56.648Z,13.97
2019-04-03T15:53:25.872Z,14.00
2019-04-03T15:55:55.639Z,15.10
2019-04-03T15:58:26.323Z,16.63
2019-04-03T16:00:56.142Z,15.50
2019-04-03T16:03:25.595Z,15.90
2019-04-03T16:05:54.745Z,14.10
2019-04-03T16:08:24.321Z,14.33
2019-04-03T16:10:56.174Z,12.53
2019-04-03T16:13:24.631Z,13.53
2019-04-03T16:15:56.309Z,14.80
2019-04-03T16:18:24.939Z,12.70
2019-04-03T16:20:54.147Z,13.20
2019-04-03T16:23:23.278Z,16.37
2019-04-03T16:25:52.428Z,14.53
2019-04-03T16:28:21.762Z,11.13
2019-04-03T16:30:52.727Z,10.77
2019-04-03T16:33:24.257Z,10.90
2019-04-03T16:35:52.677Z,14.60
2019-04-03T16:38:21.838Z,11.00
2019-04-03T16:40:51.109Z,11.83
2019-04-03T16:43:23.204Z,11.40
2019-04-03T16:45:56.273Z,13.47
2019-04-03T16:48:27.652Z,12.50
2019-04-03T16:50:58.941Z,14.10
2019-04-03T16:53:27.757Z,9.93
2019-04-03T16:55:57.332Z,12.80
2019-04-03T16:58:27.713Z,14.40
2019-04-03T17:00:57.145Z,12.53
2019-04-03T17:03:27.408Z,12.63
2019-04-03T17:05:57.074Z,9.70
2019-04-03T17:08:27.015Z,11.33
2019-04-03T17:10:56.783Z,14.23
2019-04-03T17:13:26.162Z,10.60
2019-04-03T17:15:55.264Z,10.87
2019-04-03T17:18:24.465Z,14.20
2019-04-03T17:20:56.394Z,13.80
2019-04-03T17:23:25.914Z,13.07
2019-04-03T17:25:55.217Z,14.73
2019-04-03T17:28:26.360Z,18.20
2019-04-03T17:30:55.280Z,14.90
2019-04-03T17:33:24.607Z,10.57
2019-04-03T17:35:53.803Z,15.47
2019-04-03T17:38:22.974Z,14.80
2019-04-03T17:40:52.482Z,10.87
2019-04-03T17:43:21.867Z,11.73
2019-04-03T17:45:51.007Z,12.00
2019-04-03T17:48:20.151Z,16.83
2019-04-03T17:50:49.341Z,14.13
2019-04-03T17:53:18.465Z,12.10
2019-04-03T17:55:47.563Z,13.13
2019-04-03T17:58:17.362Z,11.93
2019-04-03T18:00:46.663Z,11.40
2019-04-03T18:03:15.784Z,13.50
2019-04-03T18:05:44.939Z,14.97
2019-04-03T18:08:14.087Z,12.93
2019-04-03T18:10:43.278Z,13.03
2019-04-03T18:13:12.406Z,15.60
2019-04-03T18:15:41.527Z,16.20
2019-04-03T18:18:10.722Z,13.47
2019-04-03T18:20:39.831Z,11.93
2019-04-03T18:23:10.686Z,12.10
2019-04-03T18:25:39.873Z,18.47
2019-04-03T18:28:08.979Z,12.10
2019-04-03T18:30:38.282Z,13.20
2019-04-03T18:33:07.437Z,12.27
2019-04-03T18:35:36.687Z,13.80
2019-04-03T18:38:07.746Z,14.43
2019-04-03T18:40:37.191Z,14.93
2019-04-03T18:43:06.614Z,13.93
2019-04-03T18:45:35.763Z,15.30
2019-04-03T18:48:05.111Z,12.87
2019-04-03T18:50:35.281Z,14.80
2019-04-03T18:53:04.894Z,18.17
2019-04-03T18:55:34.912Z,13.67
2019-04-03T18:58:04.170Z,13.00
2019-04-03T19:00:33.296Z,13.47
2019-04-03T19:03:02.412Z,17.30
2019-04-03T19:05:31.516Z,13.43
2019-04-03T19:08:12.537Z,14.30
2019-04-03T19:10:31.458Z,15.20
2019-04-03T19:13:00.599Z,14.67
2019-04-03T19:15:29.763Z,15.50
2019-04-03T19:18:00.664Z,20.63
2019-04-03T19:20:29.864Z,15.63
2019-04-03T19:23:02.890Z,14.67
2019-04-03T19:25:30.171Z,18.47
2019-04-03T19:27:59.659Z,16.70
2019-04-03T19:30:28.843Z,16.63
2019-04-03T19:32:58.388Z,14.40
2019-04-03T19:35:28.465Z,17.50
2019-04-03T19:37:57.884Z,16.97
2019-04-03T19:40:26.985Z,16.17
2019-04-03T19:42:56.113Z,14.70
2019-04-03T19:45:25.222Z,14.43
2019-04-03T19:47:54.963Z,14.37
2019-04-03T19:50:24.623Z,15.60
2019-04-03T19:52:53.763Z,14.87
2019-04-03T19:55:23.504Z,18.87
2019-04-03T19:57:53.378Z,16.80
2019-04-03T20:00:22.487Z,20.50
2019-04-03T20:02:51.621Z,18.17
2019-04-03T20:05:20.767Z,16.10
2019-04-03T20:07:49.903Z,15.77
2019-04-03T20:10:19.010Z,15.63
2019-04-03T20:12:48.527Z,17.40
2019-04-03T20:15:17.996Z,15.17
2019-04-03T20:17:47.187Z,16.90
2019-04-03T20:20:16.340Z,16.30
2019-04-03T20:22:45.458Z,16.10
2019-04-03T20:25:15.244Z,20.83
2019-04-03T20:27:47.254Z,16.93
2019-04-03T20:30:15.637Z,16.97
2019-04-03T20:32:44.782Z,18.20
2019-04-03T20:35:13.948Z,19.23
2019-04-03T20:37:44.088Z,19.23
2019-04-03T20:40:13.444Z,25.37
2019-04-03T20:42:43.857Z,23.63
2019-04-03T20:45:13.209Z,22.43
2019-04-03T20:47:42.310Z,23.50
2019-04-03T20:50:11.606Z,24.30
2019-04-03T20:52:40.704Z,32.80
2019-04-03T20:55:09.861Z,26.13
2019-04-03T20:57:39.073Z,23.53
2019-04-03T21:00:11.594Z,22.27
2019-04-03T21:02:41.982Z,24.80
2019-04-03T21:05:12.411Z,26.93
2019-04-03T21:07:41.600Z,24.50
2019-04-03T21:10:11.083Z,25.93
2019-04-03T21:12:40.202Z,29.80
2019-04-03T21:15:09.587Z,24.93
2019-04-03T21:17:40.308Z,23.40
2019-04-03T21:20:09.915Z,23.50
2019-04-03T21:22:39.035Z,25.93
2019-04-03T21:25:08.235Z,28.40
2019-04-03T21:27:39.783Z,25.93
2019-04-03T21:30:08.391Z,26.40
2019-04-03T21:32:37.509Z,31.20
2019-04-03T21:35:07.781Z,29.27
2019-04-03T21:37:39.582Z,24.20
2019-04-03T21:40:08.117Z,29.13
2019-04-03T21:42:37.251Z,31.03
2019-04-03T21:45:07.522Z,26.93
2019-04-03T21:47:37.351Z,27.90
2019-04-03T21:50:06.835Z,28.60
2019-04-03T21:52:35.947Z,29.70
2019-04-03T21:55:05.936Z,27.27
2019-04-03T21:57:37.560Z,27.30
2019-04-03T22:00:07.940Z,27.70
2019-04-03T22:02:38.785Z,31.00
2019-04-03T22:05:08.146Z,30.30
2019-04-03T22:07:37.432Z,27.80
2019-04-03T22:10:08.862Z,29.00
2019-04-03T22:12:38.067Z,28.63
2019-04-03T22:15:07.732Z,35.00
2019-04-03T22:17:36.984Z,31.83
2019-04-03T22:20:06.388Z,30.93
2019-04-03T22:22:35.626Z,34.70
2019-04-03T22:25:04.855Z,28.47
2019-04-03T22:27:34.031Z,34.33
2019-04-03T22:30:03.675Z,34.20
2019-04-03T22:32:33.875Z,35.57
2019-04-03T22:35:03.065Z,31.40
2019-04-03T22:37:34.875Z,31.30
2019-04-03T22:40:03.399Z,31.80
2019-04-03T22:42:32.567Z,32.57
2019-04-03T22:45:01.729Z,33.00
2019-04-03T22:47:30.932Z,29.77
2019-04-03T22:50:00.072Z,32.50
2019-04-03T22:52:29.491Z,33.33
2019-04-03T22:54:58.651Z,36.07
2019-04-03T22:57:27.783Z,38.27
2019-04-03T22:59:57.199Z,36.30
2019-04-03T23:02:26.325Z,34.77
2019-04-03T23:04:55.738Z,34.90
2019-04-03T23:07:24.830Z,41.50
2019-04-03T23:09:56.466Z,36.87
2019-04-03T23:12:24.757Z,38.50
2019-04-03T23:14:53.871Z,38.93
2019-04-03T23:17:23.010Z,40.60
2019-04-03T23:19:52.179Z,49.00
2019-04-03T23:22:21.323Z,39.80
2019-04-03T23:24:50.431Z,39.53
2019-04-03T23:27:20.740Z,41.50
2019-04-03T23:29:49.852Z,40.30
2019-04-03T23:32:18.946Z,42.13
2019-04-03T23:34:49.720Z,43.23
2019-04-03T23:37:18.916Z,41.47
2019-04-03T23:39:49.006Z,44.50
2019-04-03T23:42:18.127Z,39.90
2019-04-03T23:44:47.270Z,42.93
2019-04-03T23:47:17.038Z,46.90
2019-04-03T23:49:46.203Z,49.00
2019-04-03T23:52:15.378Z,49.37
2019-04-03T23:54:44.535Z,42.90
2019-04-03T23:57:13.664Z,38.30
2019-04-03T23:59:44.364Z,33.90
